Time;durP1;ratioP1;P1;durP2;ratioP2;P2;SDS_P1;SDS_P2;PMS_P1;PMS_P2;Temp;Humidity;BMP_temperature;BMP_pressure;BME280_temperature;BME280_humidity;BME280_pressure;Samples;Min_cycle;Max_cycle;Signal;HPM_P1;HPM_P2
2022/04/02 00:01:33;;;;;;;10.65;2.15;;;;;;;2.92;42.83;99145.34;10066437;29;20102;-72
2022/04/02 00:06:34;;;;;;;8.55;2.28;;;;;;;2.67;44.06;99153.50;10067173;29;20132;-73
2022/04/02 00:11:36;;;;;;;5.40;2.35;;;;;;;2.68;44.66;99156.94;10066592;29;20067;-74
2022/04/02 00:16:38;;;;;;;5.97;2.42;;;;;;;2.63;42.35;99146.63;10065959;29;20114;-73
2022/04/02 00:21:39;;;;;;;7.20;2.35;;;;;;;2.51;42.49;99152.81;10066861;29;20101;-72
2022/04/02 00:26:41;;;;;;;9.70;2.78;;;;;;;2.47;43.17;99156.34;10065780;29;20120;-72
2022/04/02 00:31:43;;;;;;;12.73;3.05;;;;;;;2.45;42.34;99152.06;10064756;29;20041;-71
2022/04/02 00:36:45;;;;;;;11.23;2.50;;;;;;;2.37;43.16;99153.91;10065267;29;20465;-73
2022/04/02 00:41:46;;;;;;;8.80;2.35;;;;;;;2.29;42.86;99151.38;10065631;29;20056;-73
2022/04/02 00:46:48;;;;;;;9.70;2.42;;;;;;;2.13;43.24;99155.06;10065117;29;20053;-73
2022/04/02 00:51:50;;;;;;;4.95;2.33;;;;;;;2.23;43.33;99159.25;10064780;29;20050;-73
2022/04/02 00:56:53;;;;;;;8.18;2.35;;;;;;;2.21;43.04;99161.00;10065734;29;20092;-73
2022/04/02 01:01:54;;;;;;;6.78;2.63;;;;;;;2.21;43.39;99161.00;10064708;29;20055;-73
2022/04/02 01:06:58;;;;;;;9.05;2.30;;;;;;;2.02;43.79;99171.59;10063149;29;20579;-72
2022/04/02 01:12:03;;;;;;;5.47;1.60;;;;;;;2.08;43.42;99164.59;10063112;29;20068;-72
2022/04/02 01:17:09;;;;;;;6.18;2.28;;;;;;;1.99;44.03;99179.41;10065129;29;20054;-73
2022/04/02 01:22:14;;;;;;;8.57;3.25;;;;;;;1.84;44.68;99184.75;10047559;29;20052;-72
2022/04/02 01:27:23;;;;;;;10.63;2.78;;;;;;;1.58;45.19;99184.13;10062654;29;20057;-71
2022/04/02 01:32:32;;;;;;;3.75;2.63;;;;;;;1.62;45.26;99188.41;10062198;29;20046;-72
2022/04/02 01:37:39;;;;;;;5.68;2.88;;;;;;;1.52;45.49;99191.09;10062789;29;20404;-72
2022/04/02 01:42:45;;;;;;;8.02;3.20;;;;;;;1.49;45.84;99196.28;10062621;29;20050;-73
2022/04/02 01:47:50;;;;;;;5.13;2.63;;;;;;;1.37;46.51;99193.78;10060661;29;20076;-71
2022/04/02 01:52:54;;;;;;;4.80;2.58;;;;;;;1.32;46.76;99200.75;10061006;29;20041;-73
2022/04/02 01:57:56;;;;;;;5.50;2.60;;;;;;;1.24;46.78;99197.38;10062018;29;20057;-72
2022/04/02 02:03:06;;;;;;;8.75;4.00;;;;;;;1.20;47.96;99203.44;10062210;29;20512;-72
2022/04/02 02:08:09;;;;;;;4.75;2.85;;;;;;;1.04;48.85;99201.81;10061463;29;20053;-72
2022/04/02 02:13:20;;;;;;;4.85;2.55;;;;;;;0.82;50.27;99212.31;10062279;29;20052;-72
2022/04/02 02:18:23;;;;;;;3.90;2.60;;;;;;;0.84;50.69;99217.47;10063601;29;20041;-73
2022/04/02 02:23:25;;;;;;;4.55;2.20;;;;;;;0.78;50.61;99228.69;10061718;29;20053;-73
2022/04/02 02:28:28;;;;;;;12.98;2.30;;;;;;;0.70;51.54;99231.31;10062010;29;20061;-73
2022/04/02 02:38:54;;;;;;;6.07;2.60;;;;;;;0.42;52.26;99225.41;10063167;29;20042;-73
2022/04/02 02:44:04;;;;;;;5.80;2.53;;;;;;;0.41;52.47;99236.63;10060974;29;20060;-73
2022/04/02 02:49:12;;;;;;;4.38;2.13;;;;;;;0.29;53.32;99248.75;10061798;29;20061;-72
2022/04/02 02:54:20;;;;;;;9.15;2.63;;;;;;;0.32;53.24;99241.84;10062549;29;20085;-73
2022/04/02 02:59:22;;;;;;;5.05;2.05;;;;;;;0.21;53.42;99254.78;10061393;29;20050;-73
2022/04/02 03:04:24;;;;;;;3.63;2.30;;;;;;;0.24;53.52;99266.84;10067896;29;20084;-73
2022/04/02 03:09:32;;;;;;;3.90;2.30;;;;;;;0.11;54.06;99268.59;10067314;29;20476;-74
2022/04/02 03:14:36;;;;;;;5.20;2.20;;;;;;;0.11;53.66;99265.16;10066979;29;20090;-72
2022/04/02 03:19:37;;;;;;;3.38;2.25;;;;;;;-0.05;54.16;99275.50;10067836;29;20052;-73
2022/04/02 03:24:40;;;;;;;4.32;2.22;;;;;;;-0.05;54.74;99275.50;10066911;29;20060;-73
2022/04/02 03:29:43;;;;;;;2.67;1.88;;;;;;;-0.19;54.96;99281.53;10068497;29;20047;-72
2022/04/02 03:34:49;;;;;;;4.57;2.28;;;;;;;-0.44;55.14;99284.16;10067450;29;20136;-72
2022/04/02 03:39:52;;;;;;;8.98;2.55;;;;;;;-0.37;55.85;99285.00;10065840;29;20052;-73
2022/04/02 03:44:54;;;;;;;3.50;2.33;;;;;;;-0.32;55.64;99284.13;10065711;29;20060;-72
2022/04/02 03:49:59;;;;;;;3.63;1.92;;;;;;;-0.42;55.93;99295.31;10066890;29;20045;-72
2022/04/02 03:55:19;;;;;;;7.13;2.13;;;;;;;-0.56;56.85;99291.88;10055038;29;20117;-72
2022/04/02 04:00:23;;;;;;;3.20;2.08;;;;;;;-0.61;57.13;99296.19;10067776;29;20045;-73
2022/04/02 04:05:32;;;;;;;5.18;2.45;;;;;;;-0.85;58.45;99300.41;10067592;29;20527;-72
2022/04/02 04:10:35;;;;;;;3.47;1.92;;;;;;;-0.68;58.15;99302.19;10051954;29;20555;-72
2022/04/02 04:15:37;;;;;;;5.68;2.55;;;;;;;-0.74;58.24;99300.44;10067369;29;20060;-73
2022/04/02 04:20:41;;;;;;;4.75;2.13;;;;;;;-0.77;58.48;99315.91;10066479;29;20050;-73
2022/04/02 04:25:47;;;;;;;6.95;2.45;;;;;;;-0.82;59.00;99323.66;10068464;29;20117;-73
2022/04/02 04:30:49;;;;;;;3.72;2.13;;;;;;;-0.97;59.52;99325.31;10065727;29;20077;-73
2022/04/02 04:35:50;;;;;;;3.45;1.85;;;;;;;-1.07;59.95;99330.44;10067090;29;20074;-73
2022/04/02 04:40:52;;;;;;;3.58;2.15;;;;;;;-0.99;60.59;99345.94;10068049;29;20045;-73
2022/04/02 04:45:57;;;;;;;4.07;2.15;;;;;;;-1.11;61.31;99348.47;10066817;29;20038;-73
2022/04/02 04:50:58;;;;;;;3.67;1.90;;;;;;;-1.11;61.45;99354.50;10067675;29;20045;-72
2022/04/02 04:56:03;;;;;;;3.65;1.70;;;;;;;-1.09;61.66;99370.00;10065408;29;20064;-73
2022/04/02 05:01:05;;;;;;;5.47;1.77;;;;;;;-1.15;62.33;99363.09;10066301;29;20034;-72
2022/04/02 05:06:12;;;;;;;4.22;2.67;;;;;;;-1.19;62.87;99366.53;10062490;29;20061;-72
2022/04/02 05:11:17;;;;;;;3.33;1.88;;;;;;;-1.08;63.02;99370.00;10083983;23;20045;-74
2022/04/02 05:16:26;;;;;;;10.30;2.30;;;;;;;-0.99;62.85;99383.78;10130088;29;20048;-75
2022/04/02 05:21:30;;;;;;;2.83;2.10;;;;;;;-1.09;62.93;99388.06;10120242;29;20507;-74
2022/04/02 05:26:32;;;;;;;4.28;2.50;;;;;;;-0.98;63.10;99388.94;10103474;29;20571;-73
2022/04/02 05:31:43;;;;;;;3.78;2.30;;;;;;;-0.93;63.59;99389.84;10105936;29;20395;-74
2022/04/02 05:36:45;;;;;;;4.88;2.88;;;;;;;-0.81;63.51;99395.03;10101738;29;20049;-74
2022/04/02 05:41:48;;;;;;;4.65;2.40;;;;;;;-0.91;64.09;99402.75;10105153;29;20464;-74
2022/04/02 05:46:50;;;;;;;4.30;2.63;;;;;;;-0.91;64.30;99405.31;10104968;29;20053;-73
2022/04/02 05:52:12;;;;;;;6.18;2.53;;;;;;;-0.81;64.75;99400.19;10102987;29;20073;-73
2022/04/02 05:57:13;;;;;;;4.50;2.53;;;;;;;-0.85;64.83;99402.75;10102318;29;20459;-74
2022/04/02 06:02:15;;;;;;;4.82;2.40;;;;;;;-0.76;64.80;99406.22;10102076;29;20078;-74
2022/04/02 06:07:17;;;;;;;3.55;2.45;;;;;;;-0.75;65.04;99422.59;10105280;29;20075;-75
2022/04/02 06:12:18;;;;;;;3.63;2.30;;;;;;;-0.64;64.88;99417.47;10102711;29;20571;-74
2022/04/02 06:17:20;;;;;;;4.10;2.45;;;;;;;-0.46;64.95;99427.84;10101839;29;20049;-74
2022/04/02 06:22:22;;;;;;;5.95;2.80;;;;;;;-0.69;65.98;99437.25;10103753;29;20431;-74
2022/04/02 06:27:23;;;;;;;4.40;2.67;;;;;;;-0.59;65.49;99445.03;10105141;29;20049;-74
2022/04/02 06:32:25;;;;;;;6.78;2.78;;;;;;;-0.53;65.16;99439.91;10104109;29;20056;-74
2022/04/02 06:37:35;;;;;;;5.32;2.92;;;;;;;-0.39;65.00;99439.94;10107808;29;20551;-74
2022/04/02 06:42:38;;;;;;;4.03;3.45;;;;;;;-0.42;65.15;99446.81;10096824;29;20468;-74
2022/04/02 06:47:48;;;;;;;3.65;2.60;;;;;;;-0.49;65.44;99448.47;10113865;29;20072;-74
2022/04/02 06:52:49;;;;;;;3.65;2.55;;;;;;;-0.29;65.27;99453.72;10110784;29;20389;-74
2022/04/02 06:57:56;;;;;;;3.60;2.47;;;;;;;-0.26;65.07;99446.84;10111399;29;20049;-74
2022/04/02 07:02:58;;;;;;;6.67;2.67;;;;;;;-0.43;65.00;99450.25;10110362;29;20053;-74
2022/04/02 07:08:00;;;;;;;3.42;2.33;;;;;;;-0.47;65.86;99448.50;10116003;29;20325;-76
2022/04/02 07:13:03;;;;;;;6.25;2.63;;;;;;;-0.05;65.27;99451.19;10111923;29;20045;-74
2022/04/02 07:18:09;;;;;;;4.32;3.25;;;;;;;-0.01;64.68;99467.56;10108535;29;20074;-74
2022/04/02 07:23:13;;;;;;;7.28;3.45;;;;;;;0.24;64.39;99458.13;10108771;29;20518;-74
2022/04/02 07:28:15;;;;;;;4.55;3.05;;;;;;;0.52;62.40;99461.56;10107937;29;20045;-75
2022/04/02 07:33:17;;;;;;;5.15;2.72;;;;;;;0.60;62.94;99467.59;10112190;29;20044;-74
2022/04/02 07:38:22;;;;;;;3.53;2.20;;;;;;;0.74;62.04;99470.16;10111779;29;20056;-74
2022/04/02 07:43:57;;;;;;;7.28;3.95;;;;;;;0.88;62.14;99472.72;10113106;29;20073;-74
2022/04/02 07:49:01;;;;;;;4.47;2.47;;;;;;;0.91;60.92;99471.00;10114007;29;20136;-76
2022/04/02 07:54:09;;;;;;;5.30;2.92;;;;;;;1.27;60.39;99466.59;10116442;29;20045;-75
2022/04/02 07:59:30;;;;;;;6.40;2.70;;;;;;;1.49;59.76;99469.97;10108206;29;20063;-75
2022/04/02 08:04:32;;;;;;;3.40;2.08;;;;;;;2.11;56.40;99473.09;10110397;29;20045;-75
2022/04/02 08:09:36;;;;;;;4.43;2.53;;;;;;;2.18;55.50;99473.06;10109050;29;20135;-75
2022/04/02 08:14:40;;;;;;;6.05;2.50;;;;;;;2.23;54.85;99468.69;10111556;29;20045;-75
2022/04/02 08:19:43;;;;;;;6.45;3.33;;;;;;;2.35;54.83;99474.66;10107569;29;20041;-75
2022/04/02 08:24:45;;;;;;;3.97;2.38;;;;;;;2.64;53.84;99472.69;10105007;29;20064;-75
2022/04/02 08:30:03;;;;;;;3.00;2.00;;;;;;;2.89;53.91;99477.66;10109968;29;20128;-75
2022/04/02 08:35:07;;;;;;;5.13;2.10;;;;;;;2.48;53.06;99494.47;10113035;29;20099;-74
2022/04/02 08:40:36;;;;;;;4.53;2.55;;;;;;;2.54;53.49;99484.00;10113996;29;20053;-76
2022/04/02 08:45:59;;;;;;;4.85;2.17;;;;;;;2.30;53.34;99489.38;10108773;29;20056;-75
2022/04/02 08:51:22;;;;;;;3.35;1.83;;;;;;;2.33;53.53;99498.00;10107796;29;20072;-75
2022/04/02 08:56:28;;;;;;;3.83;2.13;;;;;;;2.77;52.85;99496.78;10109883;29;20144;-75
2022/04/02 09:01:41;;;;;;;4.55;2.00;;;;;;;2.65;52.68;99507.28;10107484;29;20480;-75
2022/04/02 09:07:02;;;;;;;2.85;1.67;;;;;;;2.75;51.90;99503.75;10106414;29;20076;-76
2022/04/02 09:12:48;;;;;;;4.60;2.88;;;;;;;2.95;51.11;99507.00;10105703;29;20136;-75
2022/04/02 09:18:13;;;;;;;4.70;1.75;;;;;;;3.30;50.17;99511.00;10111219;29;20052;-75
2022/04/02 09:23:25;;;;;;;4.65;1.90;;;;;;;4.18;49.03;99508.16;10106047;29;20128;-76
2022/04/02 09:28:35;;;;;;;7.25;2.05;;;;;;;4.11;47.67;99514.31;10106710;29;20530;-75
2022/04/02 09:34:01;;;;;;;2.55;1.60;;;;;;;3.88;46.40;99520.69;10103433;29;20045;-75
2022/04/02 09:39:12;;;;;;;3.80;1.92;;;;;;;3.72;46.70;99521.78;10107248;29;20051;-74
2022/04/02 09:44:35;;;;;;;3.35;1.90;;;;;;;3.59;47.33;99522.81;10107967;29;20044;-76
2022/04/02 09:50:03;;;;;;;2.45;1.42;;;;;;;3.66;46.34;99527.03;10105561;29;20061;-76
2022/04/02 09:55:12;;;;;;;3.20;1.70;;;;;;;3.60;46.02;99516.72;10103884;29;20053;-75
2022/04/02 10:00:20;;;;;;;3.03;1.70;;;;;;;3.63;46.36;99514.06;10105241;29;20132;-75
2022/04/02 10:05:36;;;;;;;3.15;1.90;;;;;;;3.66;45.40;99516.66;10108575;29;20045;-75
2022/04/02 10:10:38;;;;;;;2.58;1.77;;;;;;;4.13;44.59;99505.63;10106780;29;20076;-75
2022/04/02 10:15:42;;;;;;;3.58;1.50;;;;;;;4.61;42.42;99504.91;10112305;29;20056;-74
2022/04/02 10:20:45;;;;;;;4.95;1.85;;;;;;;4.71;42.95;99501.28;10114127;29;20084;-75
2022/04/02 10:26:07;;;;;;;2.90;1.50;;;;;;;4.94;42.60;99512.16;10114646;29;20095;-75
2022/04/02 10:31:16;;;;;;;2.55;1.98;;;;;;;4.60;42.44;99506.63;10114678;29;20395;-75
2022/04/02 10:36:20;;;;;;;1.90;1.52;;;;;;;4.65;42.23;99504.84;10112250;29;20057;-75
2022/04/02 10:41:28;;;;;;;4.22;1.80;;;;;;;4.55;40.78;99511.91;10114629;29;20100;-76
2022/04/02 10:46:32;;;;;;;1.92;1.17;;;;;;;4.24;40.73;99511.53;10115448;29;20048;-76
2022/04/02 10:51:40;;;;;;;1.98;1.17;;;;;;;4.48;39.88;99505.09;10111147;29;20052;-75
2022/04/02 10:56:44;;;;;;;1.30;1.00;;;;;;;4.75;39.41;99503.81;10115123;29;20049;-76
2022/04/02 11:01:49;;;;;;;2.35;1.20;;;;;;;4.94;38.41;99496.53;10111532;29;20045;-75
2022/04/02 11:06:51;;;;;;;3.22;1.13;;;;;;;5.57;36.43;99490.13;10103230;29;20069;-75
2022/04/02 11:12:02;;;;;;;1.60;0.95;;;;;;;5.53;37.36;99498.91;10101802;29;20477;-75
2022/04/02 11:17:04;;;;;;;5.35;1.30;;;;;;;5.71;36.84;99490.72;10113394;29;20356;-73
2022/04/02 11:22:08;;;;;;;1.88;1.10;;;;;;;5.96;37.08;99483.25;10111539;29;20055;-74
2022/04/02 11:27:16;;;;;;;2.60;1.00;;;;;;;5.79;36.46;99485.34;10114770;29;20049;-75
2022/04/02 11:32:24;;;;;;;1.77;1.20;;;;;;;5.94;36.77;99494.63;10113366;29;20136;-74
2022/04/02 11:37:35;;;;;;;1.73;1.20;;;;;;;5.87;36.30;99493.00;10111526;29;20052;-73
2022/04/02 11:42:45;;;;;;;4.20;1.25;;;;;;;5.88;35.72;99489.50;10107786;29;20048;-73
2022/04/02 11:47:49;;;;;;;2.10;1.00;;;;;;;5.92;37.87;99475.53;10110760;29;20049;-74
2022/04/02 11:52:59;;;;;;;3.28;1.30;;;;;;;5.90;35.71;99482.50;10110984;29;20052;-74
2022/04/02 11:58:12;;;;;;;5.50;1.13;;;;;;;5.78;36.72;99476.66;10108822;29;20110;-73
2022/04/02 12:03:25;;;;;;;1.45;1.10;;;;;;;6.02;35.80;99469.22;10110045;29;20097;-72
2022/04/02 12:08:30;;;;;;;2.85;1.20;;;;;;;5.85;35.61;99477.41;10108253;29;20057;-72
2022/04/02 12:13:32;;;;;;;2.25;1.00;;;;;;;5.80;36.27;99480.09;10110468;29;20045;-71
2022/04/02 12:18:56;;;;;;;2.20;1.40;;;;;;;5.77;36.70;99474.09;10108165;29;20076;-73
2022/04/02 12:23:59;;;;;;;2.30;1.10;;;;;;;5.79;37.20;99480.13;10108463;29;20053;-72
2022/04/02 12:29:03;;;;;;;1.30;1.00;;;;;;;5.68;36.69;99480.34;10108987;29;20049;-73
2022/04/02 12:34:06;;;;;;;2.28;1.33;;;;;;;5.69;36.40;99481.22;10111350;29;20411;-72
2022/04/02 12:39:10;;;;;;;6.82;1.50;;;;;;;6.07;36.82;99476.06;10107466;29;20506;-73
2022/04/02 12:44:19;;;;;;;2.13;1.23;;;;;;;6.17;36.74;99476.72;10105752;29;20045;-73
2022/04/02 12:49:34;;;;;;;1.50;1.25;;;;;;;5.93;36.03;99485.06;10103988;29;20079;-73
2022/04/02 12:54:36;;;;;;;1.27;1.02;;;;;;;5.69;36.09;99497.72;10104679;29;20049;-72
2022/04/02 12:59:42;;;;;;;2.15;1.27;;;;;;;5.88;36.37;99492.97;10104447;29;20045;-73
2022/04/02 13:04:55;;;;;;;2.65;1.40;;;;;;;5.83;36.43;99503.50;10103191;29;20064;-72
2022/04/02 13:09:57;;;;;;;1.33;1.02;;;;;;;5.95;36.41;99494.59;10103628;29;20078;-73
2022/04/02 13:15:04;;;;;;;4.78;3.97;;;;;;;6.06;37.31;99496.94;10104095;29;20041;-72
2022/04/02 13:25:29;;;;;;;2.95;1.50;;;;;;;5.98;37.98;99504.13;10104689;29;19928;-73
2022/04/02 13:30:42;;;;;;;1.20;1.10;;;;;;;6.01;36.53;99515.31;10103621;29;20041;-72
2022/04/02 13:35:46;;;;;;;3.10;1.55;;;;;;;6.04;36.20;99517.00;10099746;29;20045;-73
2022/04/02 13:40:52;;;;;;;2.60;1.52;;;;;;;6.03;37.81;99516.16;10102603;29;20053;-73
2022/04/02 13:45:56;;;;;;;5.07;1.42;;;;;;;6.00;36.67;99516.22;10097954;29;20041;-73
2022/04/02 13:51:08;;;;;;;2.05;1.40;;;;;;;5.94;36.35;99511.13;10099662;29;20049;-72
2022/04/02 13:56:15;;;;;;;3.08;2.15;;;;;;;6.11;37.12;99502.94;10099084;29;20049;-72
2022/04/02 14:01:19;;;;;;;3.70;2.92;;;;;;;6.15;36.95;99504.56;10100188;29;20453;-72
2022/04/02 14:06:24;;;;;;;5.05;1.30;;;;;;;6.20;37.46;99501.88;10099849;29;20096;-73
2022/04/02 14:11:36;;;;;;;1.75;1.27;;;;;;;5.95;36.62;99506.78;10099294;29;20053;-73
2022/04/02 14:16:39;;;;;;;2.75;1.70;;;;;;;6.18;36.65;99503.66;10098545;29;20057;-73
2022/04/02 14:21:51;;;;;;;2.33;1.23;;;;;;;6.19;37.60;99510.59;10101408;29;20076;-73
2022/04/02 14:27:32;;;;;;;2.72;1.40;;;;;;;6.34;36.86;99506.78;10097870;29;20113;-73
2022/04/02 14:33:16;;;;;;;3.40;1.58;;;;;;;6.21;37.29;99503.59;10098158;29;20049;-72
2022/04/02 14:38:43;;;;;;;2.55;1.20;;;;;;;6.32;36.52;99505.06;10099316;29;20049;-73
2022/04/02 14:44:22;;;;;;;3.05;1.33;;;;;;;6.16;37.17;99511.53;10102558;29;20041;-73
2022/04/02 14:49:53;;;;;;;4.65;2.47;;;;;;;6.08;37.68;99521.28;10099501;29;20101;-74
2022/04/02 14:55:19;;;;;;;2.88;1.70;;;;;;;6.08;37.37;99513.44;10100218;29;20053;-72
2022/04/02 15:00:29;;;;;;;4.15;1.67;;;;;;;6.03;36.81;99510.09;10105427;29;20049;-72
2022/04/02 15:06:04;;;;;;;2.55;1.70;;;;;;;6.17;36.28;99528.03;10100059;29;20064;-73
2022/04/02 15:11:12;;;;;;;2.53;1.42;;;;;;;6.12;36.74;99522.94;10110182;29;20128;-78
2022/04/02 15:16:28;;;;;;;1.95;1.30;;;;;;;6.00;35.97;99525.78;10106922;29;20384;-72
2022/04/02 15:21:30;;;;;;;3.13;1.45;;;;;;;5.84;37.03;99530.44;10108192;29;20056;-72
2022/04/02 15:26:44;;;;;;;3.13;1.67;;;;;;;5.88;38.58;99539.91;10107267;29;20052;-77
2022/04/02 15:32:01;;;;;;;3.75;1.35;;;;;;;5.78;39.34;99535.78;10106674;29;20132;-74
2022/04/02 15:37:04;;;;;;;3.00;1.58;;;;;;;5.59;39.77;99539.66;10105265;29;20049;-73
2022/04/02 15:42:44;;;;;;;4.18;2.00;;;;;;;5.62;39.90;99550.84;10105110;29;20048;-73
2022/04/02 15:47:49;;;;;;;4.30;1.63;;;;;;;5.51;40.02;99561.50;10085945;29;20045;-73
2022/04/02 15:53:09;;;;;;;3.67;1.85;;;;;;;5.63;40.51;99572.59;10108231;29;20048;-73
2022/04/02 15:58:10;;;;;;;1.83;1.20;;;;;;;5.49;40.16;99583.25;10108383;29;20087;-77
2022/04/02 16:03:31;;;;;;;8.27;1.58;;;;;;;5.36;40.90;99585.25;10117765;29;20474;-78
2022/04/02 16:08:33;;;;;;;3.20;2.03;;;;;;;5.21;41.44;99591.56;10115025;29;20117;-77
2022/04/02 16:13:38;;;;;;;2.72;1.40;;;;;;;5.12;41.76;99594.34;10113457;29;20078;-77
2022/04/02 16:18:41;;;;;;;2.85;2.03;;;;;;;5.16;42.72;99602.97;10104496;29;20128;-72
2022/04/02 16:23:43;;;;;;;2.15;1.83;;;;;;;5.03;42.22;99612.72;10101825;29;20575;-72
2022/04/02 16:28:46;;;;;;;2.85;1.90;;;;;;;4.87;42.76;99619.06;10103016;29;20110;-71
2022/04/02 16:33:50;;;;;;;9.52;2.53;;;;;;;4.87;42.96;99624.25;10104633;29;20041;-72
2022/04/02 16:38:57;;;;;;;3.33;2.33;;;;;;;4.64;43.65;99638.47;10106464;29;20056;-72
2022/04/02 16:44:23;;;;;;;3.03;1.80;;;;;;;4.55;44.07;99649.00;10102852;29;20136;-71
2022/04/02 16:49:25;;;;;;;9.32;1.90;;;;;;;4.47;45.02;99656.06;10102201;29;20088;-71
2022/04/02 16:54:26;;;;;;;3.03;1.80;;;;;;;4.45;44.37;99661.28;10101664;29;20073;-72
2022/04/02 16:59:35;;;;;;;15.43;2.45;;;;;;;4.36;45.09;99665.75;10103493;29;20061;-71
2022/04/02 17:04:36;;;;;;;3.67;1.90;;;;;;;4.21;45.32;99675.47;10101453;29;20049;-72
2022/04/02 17:09:43;;;;;;;5.80;2.45;;;;;;;4.13;45.56;99686.84;10101185;29;20045;-72
2022/04/02 17:14:45;;;;;;;5.47;2.53;;;;;;;3.94;46.02;99684.47;10132486;23;20455;-74
2022/04/02 17:19:55;;;;;;;3.53;2.17;;;;;;;3.99;46.94;99695.66;10132630;29;20053;-74
2022/04/02 17:25:05;;;;;;;9.18;2.30;;;;;;;3.95;46.11;99704.38;10109051;29;20051;-74
2022/04/02 17:30:16;;;;;;;2.60;1.77;;;;;;;3.78;46.75;99712.34;10105536;29;20048;-74
2022/04/02 17:35:39;;;;;;;3.65;1.80;;;;;;;3.65;47.29;99720.25;10105685;29;20495;-74
2022/04/02 17:40:42;;;;;;;6.03;2.08;;;;;;;3.59;47.36;99723.78;10105694;29;20057;-73
2022/04/02 17:45:50;;;;;;;5.00;1.90;;;;;;;3.51;47.90;99729.03;10102443;29;20061;-73
2022/04/02 17:51:00;;;;;;;4.72;1.83;;;;;;;3.41;47.31;99749.88;10106423;29;20483;-73
2022/04/02 17:56:07;;;;;;;3.05;1.60;;;;;;;3.37;47.55;99756.88;10107853;29;20041;-73
2022/04/02 18:01:28;;;;;;;3.28;1.83;;;;;;;3.47;47.31;99761.13;10108102;29;20080;-73
2022/04/02 18:06:31;;;;;;;3.47;1.85;;;;;;;3.35;47.37;99779.38;10104671;29;20045;-74
2022/04/02 18:11:34;;;;;;;3.35;2.00;;;;;;;3.27;47.00;99781.16;10106010;29;20092;-74
2022/04/02 18:16:36;;;;;;;3.15;1.77;;;;;;;3.18;47.96;99800.25;10107431;29;20069;-73
2022/04/02 18:21:38;;;;;;;2.63;1.88;;;;;;;3.24;47.82;99812.38;10106313;29;20053;-73
2022/04/02 18:26:39;;;;;;;5.32;2.00;;;;;;;3.29;47.54;99824.44;10107146;29;20057;-75
2022/04/02 18:31:41;;;;;;;3.70;2.05;;;;;;;3.13;48.31;99830.59;10111149;29;20052;-74
2022/04/02 18:36:43;;;;;;;4.15;2.00;;;;;;;3.03;49.05;99827.19;10100884;29;20053;-74
2022/04/02 18:41:46;;;;;;;6.53;2.35;;;;;;;2.87;49.80;99840.22;10112657;29;20112;-74
2022/04/02 18:46:48;;;;;;;7.15;2.85;;;;;;;2.96;50.47;99847.97;10114519;29;20113;-73
2022/04/02 18:51:50;;;;;;;5.07;2.08;;;;;;;2.77;50.95;99849.78;10114795;29;20045;-73
2022/04/02 18:56:51;;;;;;;3.75;1.95;;;;;;;2.71;51.60;99857.59;10111095;29;20060;-74
2022/04/02 19:01:53;;;;;;;3.22;2.17;;;;;;;2.76;51.42;99856.72;10110963;29;20062;-75
2022/04/02 19:06:55;;;;;;;5.45;2.30;;;;;;;2.60;51.60;99867.13;10111163;29;20136;-75
2022/04/02 19:11:58;;;;;;;2.67;1.70;;;;;;;2.59;52.11;99868.88;10109117;29;20057;-74
2022/04/02 19:16:59;;;;;;;5.45;2.30;;;;;;;2.69;52.39;99883.53;10108967;29;20112;-74
2022/04/02 19:22:01;;;;;;;4.63;1.92;;;;;;;2.58;52.60;99890.50;10110975;29;20060;-73
2022/04/02 19:27:03;;;;;;;4.35;1.98;;;;;;;2.56;52.96;99892.22;10110253;29;20049;-74
2022/04/02 19:32:05;;;;;;;4.25;2.08;;;;;;;2.56;53.45;99910.38;10109835;29;20056;-75
2022/04/02 19:37:07;;;;;;;3.97;1.98;;;;;;;2.35;54.04;99900.91;10108265;29;20045;-73
2022/04/02 19:42:08;;;;;;;3.97;2.33;;;;;;;2.36;54.77;99918.19;10106862;29;20150;-74
2022/04/02 19:47:10;;;;;;;3.53;2.05;;;;;;;2.24;55.55;99928.56;10108273;29;20053;-74
2022/04/02 19:52:12;;;;;;;3.53;1.85;;;;;;;2.36;55.29;99922.53;10108536;29;20097;-73
2022/04/02 19:57:13;;;;;;;8.43;2.20;;;;;;;2.33;55.61;99932.88;10108547;29;20037;-74
2022/04/02 20:02:16;;;;;;;5.47;2.08;;;;;;;2.21;56.03;99939.81;10107439;29;20059;-73
2022/04/02 20:07:24;;;;;;;4.57;2.00;;;;;;;2.10;56.59;99948.44;10107624;29;20072;-74
2022/04/02 20:12:26;;;;;;;2.65;1.77;;;;;;;2.03;56.93;99950.16;10107645;29;20052;-74
2022/04/02 20:17:27;;;;;;;4.63;2.13;;;;;;;1.98;57.01;99957.91;10109578;29;20492;-74
2022/04/02 20:22:29;;;;;;;2.47;1.98;;;;;;;1.92;56.83;99963.09;10105138;29;20049;-73
2022/04/02 20:27:32;;;;;;;4.00;2.33;;;;;;;1.96;57.33;99964.84;10105425;29;20112;-74
2022/04/02 20:32:34;;;;;;;3.45;2.30;;;;;;;1.88;57.58;99970.88;10105651;29;20049;-75
2022/04/02 20:37:35;;;;;;;7.85;2.33;;;;;;;1.79;58.28;99974.31;10105332;29;20119;-75
2022/04/02 20:42:38;;;;;;;3.47;1.90;;;;;;;1.69;58.04;99986.38;10105527;29;20128;-74
2022/04/02 20:47:40;;;;;;;6.68;2.08;;;;;;;1.64;58.74;99990.69;10086977;29;20457;-74
2022/04/02 20:52:43;;;;;;;5.47;2.17;;;;;;;1.66;58.58;99998.44;10065967;29;20046;-75
2022/04/02 20:57:45;;;;;;;3.25;2.10;;;;;;;1.63;58.97;99998.41;10065293;29;20412;-74
2022/04/02 21:02:47;;;;;;;4.07;2.28;;;;;;;1.65;59.16;100004.50;10065482;29;20511;-74
2022/04/02 21:07:48;;;;;;;3.10;2.63;;;;;;;1.79;58.49;100014.91;10066368;29;20053;-75
2022/04/02 21:12:51;;;;;;;3.60;2.20;;;;;;;1.47;59.32;100015.66;10065111;29;20042;-74
2022/04/02 21:17:53;;;;;;;3.65;2.17;;;;;;;1.48;59.55;100026.00;10064246;29;20109;-73
2022/04/02 21:22:55;;;;;;;3.42;2.20;;;;;;;1.35;59.67;100029.38;10064773;29;20053;-74
2022/04/02 21:27:57;;;;;;;3.38;2.30;;;;;;;1.50;59.19;100033.78;10064536;29;20054;-74
2022/04/02 21:32:59;;;;;;;3.88;2.20;;;;;;;1.41;59.29;100039.75;10064320;29;20045;-74
2022/04/02 21:38:01;;;;;;;4.80;2.70;;;;;;;1.32;59.57;100049.22;10064877;29;20045;-74
2022/04/02 21:43:05;;;;;;;6.40;2.63;;;;;;;1.31;59.25;100053.53;10064061;29;20049;-74
2022/04/02 21:48:06;;;;;;;4.05;2.13;;;;;;;1.20;59.30;100052.63;10065579;29;20049;-74
2022/04/02 21:53:10;;;;;;;4.95;2.50;;;;;;;1.32;60.07;100059.56;10062839;29;20053;-74
2022/04/02 21:58:12;;;;;;;9.23;3.00;;;;;;;1.46;58.34;100064.00;10063075;29;20049;-74
2022/04/02 22:03:18;;;;;;;3.97;2.00;;;;;;;1.37;58.23;100076.00;10064008;29;20052;-73
2022/04/02 22:08:21;;;;;;;2.10;1.80;;;;;;;1.46;58.01;100074.34;10063487;29;20053;-73
2022/04/02 22:13:23;;;;;;;2.58;1.75;;;;;;;1.48;57.82;100071.75;10061906;29;20045;-73
2022/04/02 22:18:25;;;;;;;3.78;1.95;;;;;;;1.38;58.51;100083.81;10062426;29;20423;-75
2022/04/02 22:23:26;;;;;;;3.63;2.00;;;;;;;1.48;57.33;100089.91;10063047;29;20109;-74
2022/04/02 22:28:28;;;;;;;3.60;2.20;;;;;;;1.25;57.38;100085.44;10062589;29;20077;-73
2022/04/02 22:33:31;;;;;;;3.58;1.88;;;;;;;1.23;57.71;100087.13;10060892;29;20063;-74
2022/04/02 22:38:33;;;;;;;2.65;1.58;;;;;;;1.33;57.00;100093.28;10063935;29;20109;-73
2022/04/02 22:43:35;;;;;;;3.25;1.90;;;;;;;1.39;57.06;100095.88;10063551;29;20049;-74
2022/04/02 22:48:36;;;;;;;2.55;1.52;;;;;;;1.10;57.97;100094.81;10063122;29;20194;-73
2022/04/02 22:53:38;;;;;;;6.70;1.80;;;;;;;1.08;58.16;100092.22;10062009;29;20083;-74
2022/04/02 22:58:40;;;;;;;3.63;2.00;;;;;;;0.97;57.76;100104.19;10062389;29;20076;-72
2022/04/02 23:03:41;;;;;;;4.55;1.75;;;;;;;1.13;57.35;100106.06;10061674;29;20056;-74
2022/04/02 23:08:43;;;;;;;4.53;1.75;;;;;;;1.23;56.66;100107.84;10063974;29;20051;-74
2022/04/02 23:13:46;;;;;;;2.65;1.65;;;;;;;1.00;57.05;100112.88;10091002;23;20112;-75
2022/04/02 23:18:48;;;;;;;4.03;1.50;;;;;;;1.00;57.37;100114.59;10139768;29;20109;-74
2022/04/02 23:23:50;;;;;;;3.78;1.60;;;;;;;0.81;57.96;100113.56;10104005;29;20488;-75
2022/04/02 23:28:52;;;;;;;3.20;1.77;;;;;;;0.87;57.73;100120.50;10106215;29;20472;-75
2022/04/02 23:33:54;;;;;;;2.88;1.52;;;;;;;0.76;57.50;100120.44;10106275;29;20045;-75
2022/04/02 23:38:55;;;;;;;4.25;1.92;;;;;;;0.78;57.40;100116.13;10107122;29;20056;-74
2022/04/02 23:43:57;;;;;;;1.98;1.42;;;;;;;0.80;57.20;100114.44;10104445;29;20056;-75
2022/04/02 23:48:58;;;;;;;3.08;1.73;;;;;;;0.74;57.04;100115.22;10104229;29;20057;-74
2022/04/02 23:54:00;;;;;;;3.63;1.70;;;;;;;0.75;57.00;100116.09;10105134;29;20113;-75
2022/04/02 23:59:02;;;;;;;2.28;1.58;;;;;;;0.91;56.54;100120.56;10103087;29;20056;-75
